sensor_id;sensor_type;location;lat;lon;timestamp;pressure;altitude;pressure_sealevel;temperature;humidity
4858;BME280;58975;51.978;8.472;2022-10-22T00:00:38;99838.63;;;11.18;100.00
4858;BME280;58975;51.978;8.472;2022-10-22T00:05:35;99846.47;;;11.10;100.00
4858;BME280;58975;51.978;8.472;2022-10-22T00:10:31;99843.53;;;11.04;100.00
4858;BME280;58975;51.978;8.472;2022-10-22T00:15:28;99853.38;;;10.94;100.00
4858;BME280;58975;51.978;8.472;2022-10-22T00:20:24;99853.22;;;10.85;100.00
4858;BME280;58975;51.978;8.472;2022-10-22T00:25:21;99839.75;;;10.87;100.00
4858;BME280;58975;51.978;8.472;2022-10-22T00:30:18;99858.22;;;10.79;100.00
4858;BME280;58975;51.978;8.472;2022-10-22T00:35:14;99864.84;;;10.84;100.00
4858;BME280;58975;51.978;8.472;2022-10-22T00:40:11;99875.66;;;10.93;100.00
4858;BME280;58975;51.978;8.472;2022-10-22T00:50:15;99881.19;;;10.70;100.00
4858;BME280;58975;51.978;8.472;2022-10-22T00:55:13;99882.19;;;10.69;100.00
4858;BME280;58975;51.978;8.472;2022-10-22T01:00:10;99896.19;;;10.71;100.00
4858;BME280;58975;51.978;8.472;2022-10-22T01:05:07;99887.06;;;10.64;100.00
4858;BME280;58975;51.978;8.472;2022-10-22T01:15:44;99890.66;;;10.94;100.00
4858;BME280;58975;51.978;8.472;2022-10-22T01:21:07;99870.84;;;10.86;100.00
4858;BME280;58975;51.978;8.472;2022-10-22T01:31:25;99873.75;;;10.64;100.00
4858;BME280;58975;51.978;8.472;2022-10-22T01:36:24;99880.50;;;10.68;100.00
4858;BME280;58975;51.978;8.472;2022-10-22T01:41:22;99870.09;;;10.46;100.00
4858;BME280;58975;51.978;8.472;2022-10-22T01:46:20;99873.81;;;10.34;100.00
4858;BME280;58975;51.978;8.472;2022-10-22T01:56:51;99865.59;;;10.47;100.00
4858;BME280;58975;51.978;8.472;2022-10-22T02:01:58;99866.13;;;10.31;100.00
4858;BME280;58975;51.978;8.472;2022-10-22T02:07:00;99864.88;;;10.35;100.00
4858;BME280;58975;51.978;8.472;2022-10-22T02:12:00;99853.94;;;10.38;100.00
4858;BME280;58975;51.978;8.472;2022-10-22T02:16:58;99843.69;;;10.33;100.00
4858;BME280;58975;51.978;8.472;2022-10-22T02:21:55;99830.66;;;10.30;100.00
4858;BME280;58975;51.978;8.472;2022-10-22T02:27:11;99836.59;;;10.13;100.00
4858;BME280;58975;51.978;8.472;2022-10-22T02:32:17;99834.53;;;10.17;100.00
4858;BME280;58975;51.978;8.472;2022-10-22T02:37:17;99825.94;;;10.13;100.00
4858;BME280;58975;51.978;8.472;2022-10-22T02:42:14;99834.69;;;10.15;100.00
4858;BME280;58975;51.978;8.472;2022-10-22T02:47:10;99836.81;;;10.01;100.00
4858;BME280;58975;51.978;8.472;2022-10-22T02:52:07;99838.22;;;10.05;100.00
4858;BME280;58975;51.978;8.472;2022-10-22T02:57:03;99852.38;;;10.05;100.00
4858;BME280;58975;51.978;8.472;2022-10-22T03:02:00;99861.03;;;9.97;100.00
4858;BME280;58975;51.978;8.472;2022-10-22T03:06:56;99854.47;;;10.02;100.00
4858;BME280;58975;51.978;8.472;2022-10-22T03:11:52;99859.47;;;9.95;100.00
4858;BME280;58975;51.978;8.472;2022-10-22T03:16:49;99880.41;;;9.88;100.00
4858;BME280;58975;51.978;8.472;2022-10-22T03:21:58;99878.72;;;10.08;100.00
4858;BME280;58975;51.978;8.472;2022-10-22T03:26:56;99901.78;;;10.19;100.00
4858;BME280;58975;51.978;8.472;2022-10-22T03:31:53;99901.91;;;10.17;100.00
4858;BME280;58975;51.978;8.472;2022-10-22T03:36:50;99890.19;;;9.78;100.00
4858;BME280;58975;51.978;8.472;2022-10-22T03:41:48;99893.53;;;9.80;100.00
4858;BME280;58975;51.978;8.472;2022-10-22T03:46:45;99901.28;;;9.83;100.00
4858;BME280;58975;51.978;8.472;2022-10-22T03:51:42;99914.31;;;9.86;100.00
4858;BME280;58975;51.978;8.472;2022-10-22T03:56:38;99910.72;;;9.97;100.00
4858;BME280;58975;51.978;8.472;2022-10-22T04:01:34;99904.25;;;9.90;100.00
4858;BME280;58975;51.978;8.472;2022-10-22T04:06:31;99904.44;;;9.77;100.00
4858;BME280;58975;51.978;8.472;2022-10-22T04:11:27;99911.00;;;9.73;100.00
4858;BME280;58975;51.978;8.472;2022-10-22T04:16:24;99912.88;;;9.62;100.00
4858;BME280;58975;51.978;8.472;2022-10-22T04:21:26;99915.66;;;9.81;100.00
4858;BME280;58975;51.978;8.472;2022-10-22T04:26:22;99916.00;;;9.67;100.00
4858;BME280;58975;51.978;8.472;2022-10-22T04:31:22;99921.19;;;9.68;100.00
4858;BME280;58975;51.978;8.472;2022-10-22T04:36:19;99912.03;;;9.61;100.00
4858;BME280;58975;51.978;8.472;2022-10-22T04:41:18;99920.13;;;9.60;100.00
4858;BME280;58975;51.978;8.472;2022-10-22T04:46:16;99922.66;;;9.61;100.00
4858;BME280;58975;51.978;8.472;2022-10-22T04:51:17;99912.03;;;9.61;100.00
4858;BME280;58975;51.978;8.472;2022-10-22T04:56:19;99917.09;;;9.64;100.00
4858;BME280;58975;51.978;8.472;2022-10-22T05:01:21;99911.94;;;9.72;100.00
4858;BME280;58975;51.978;8.472;2022-10-22T05:06:18;99907.69;;;9.60;100.00
4858;BME280;58975;51.978;8.472;2022-10-22T05:11:18;99906.47;;;9.64;100.00
4858;BME280;58975;51.978;8.472;2022-10-22T05:16:15;99920.13;;;9.80;100.00
4858;BME280;58975;51.978;8.472;2022-10-22T05:21:15;99922.84;;;9.69;100.00
4858;BME280;58975;51.978;8.472;2022-10-22T05:26:13;99926.31;;;9.60;100.00
4858;BME280;58975;51.978;8.472;2022-10-22T05:31:11;99937.22;;;9.46;100.00
4858;BME280;58975;51.978;8.472;2022-10-22T05:36:11;99937.44;;;9.54;100.00
4858;BME280;58975;51.978;8.472;2022-10-22T05:41:13;99950.09;;;9.62;100.00
4858;BME280;58975;51.978;8.472;2022-10-22T05:46:12;99959.13;;;9.70;100.00
4858;BME280;58975;51.978;8.472;2022-10-22T05:51:15;99952.75;;;9.62;100.00
4858;BME280;58975;51.978;8.472;2022-10-22T05:56:15;99962.28;;;9.64;100.00
4858;BME280;58975;51.978;8.472;2022-10-22T06:01:14;99971.72;;;9.68;100.00
4858;BME280;58975;51.978;8.472;2022-10-22T06:06:44;99970.84;;;9.68;100.00
4858;BME280;58975;51.978;8.472;2022-10-22T06:11:40;99980.41;;;9.91;100.00
4858;BME280;58975;51.978;8.472;2022-10-22T06:16:37;99988.59;;;10.20;100.00
4858;BME280;58975;51.978;8.472;2022-10-22T06:21:33;99994.16;;;10.37;100.00
4858;BME280;58975;51.978;8.472;2022-10-22T06:26:30;99997.28;;;10.42;100.00
4858;BME280;58975;51.978;8.472;2022-10-22T06:31:27;100007.97;;;10.52;100.00
4858;BME280;58975;51.978;8.472;2022-10-22T06:36:24;100017.00;;;10.61;100.00
4858;BME280;58975;51.978;8.472;2022-10-22T06:41:21;100029.94;;;10.75;100.00
4858;BME280;58975;51.978;8.472;2022-10-22T06:46:25;100036.16;;;10.85;100.00
4858;BME280;58975;51.978;8.472;2022-10-22T06:51:22;100036.69;;;11.09;100.00
4858;BME280;58975;51.978;8.472;2022-10-22T06:56:20;100032.53;;;11.35;100.00
4858;BME280;58975;51.978;8.472;2022-10-22T07:01:19;100046.72;;;11.46;100.00
4858;BME280;58975;51.978;8.472;2022-10-22T07:06:17;100053.47;;;11.50;100.00
4858;BME280;58975;51.978;8.472;2022-10-22T07:12:01;100065.28;;;11.66;100.00
4858;BME280;58975;51.978;8.472;2022-10-22T07:16:38;100074.88;;;11.78;100.00
4858;BME280;58975;51.978;8.472;2022-10-22T07:21:38;100072.19;;;11.88;100.00
4858;BME280;58975;51.978;8.472;2022-10-22T07:26:34;100073.19;;;11.97;100.00
4858;BME280;58975;51.978;8.472;2022-10-22T07:31:32;100086.69;;;12.05;100.00
4858;BME280;58975;51.978;8.472;2022-10-22T07:36:28;100077.00;;;12.23;100.00
4858;BME280;58975;51.978;8.472;2022-10-22T07:41:27;100078.94;;;12.40;100.00
4858;BME280;58975;51.978;8.472;2022-10-22T07:46:25;100077.91;;;12.60;100.00
4858;BME280;58975;51.978;8.472;2022-10-22T07:51:21;100086.06;;;12.68;100.00
4858;BME280;58975;51.978;8.472;2022-10-22T07:56:18;100074.34;;;12.79;100.00
4858;BME280;58975;51.978;8.472;2022-10-22T08:01:14;100066.81;;;13.02;100.00
4858;BME280;58975;51.978;8.472;2022-10-22T08:06:12;100068.94;;;13.35;100.00
4858;BME280;58975;51.978;8.472;2022-10-22T08:11:09;100056.94;;;13.66;100.00
4858;BME280;58975;51.978;8.472;2022-10-22T08:16:05;100047.06;;;13.85;100.00
4858;BME280;58975;51.978;8.472;2022-10-22T08:21:02;100022.09;;;14.19;100.00
4858;BME280;58975;51.978;8.472;2022-10-22T08:25:58;100006.22;;;14.44;100.00
4858;BME280;58975;51.978;8.472;2022-10-22T08:30:55;99988.91;;;14.56;100.00
4858;BME280;58975;51.978;8.472;2022-10-22T08:35:52;99988.84;;;14.74;100.00
4858;BME280;58975;51.978;8.472;2022-10-22T08:40:51;99993.28;;;14.99;100.00
4858;BME280;58975;51.978;8.472;2022-10-22T08:51:20;100003.47;;;15.37;100.00
4858;BME280;58975;51.978;8.472;2022-10-22T08:56:21;99990.66;;;15.73;100.00
4858;BME280;58975;51.978;8.472;2022-10-22T09:01:32;100003.59;;;15.86;100.00
4858;BME280;58975;51.978;8.472;2022-10-22T09:06:32;99995.38;;;16.03;100.00
4858;BME280;58975;51.978;8.472;2022-10-22T09:11:31;99985.81;;;16.25;100.00
4858;BME280;58975;51.978;8.472;2022-10-22T09:16:47;100000.59;;;16.21;100.00
4858;BME280;58975;51.978;8.472;2022-10-22T09:27:13;100001.56;;;16.52;100.00
4858;BME280;58975;51.978;8.472;2022-10-22T09:32:10;100005.56;;;16.73;100.00
4858;BME280;58975;51.978;8.472;2022-10-22T09:37:08;100016.81;;;16.84;100.00
4858;BME280;58975;51.978;8.472;2022-10-22T09:42:07;100020.22;;;16.46;100.00
4858;BME280;58975;51.978;8.472;2022-10-22T09:47:06;100020.22;;;16.62;100.00
4858;BME280;58975;51.978;8.472;2022-10-22T09:52:23;100032.47;;;16.65;100.00
4858;BME280;58975;51.978;8.472;2022-10-22T09:57:21;100041.91;;;16.61;100.00
4858;BME280;58975;51.978;8.472;2022-10-22T10:02:20;100051.44;;;16.71;100.00
4858;BME280;58975;51.978;8.472;2022-10-22T10:07:34;100054.66;;;16.67;100.00
4858;BME280;58975;51.978;8.472;2022-10-22T10:12:45;100056.66;;;16.81;100.00
4858;BME280;58975;51.978;8.472;2022-10-22T10:23:45;100079.63;;;16.99;100.00
4858;BME280;58975;51.978;8.472;2022-10-22T10:34:30;100077.44;;;16.95;100.00
4858;BME280;58975;51.978;8.472;2022-10-22T10:50:16;100096.03;;;17.29;100.00
4858;BME280;58975;51.978;8.472;2022-10-22T10:55:29;100084.25;;;17.22;100.00
4858;BME280;58975;51.978;8.472;2022-10-22T11:00:29;100087.56;;;16.85;100.00
4858;BME280;58975;51.978;8.472;2022-10-22T11:10:46;100107.72;;;16.16;100.00
4858;BME280;58975;51.978;8.472;2022-10-22T11:15:53;100105.81;;;15.92;100.00
4858;BME280;58975;51.978;8.472;2022-10-22T11:21:12;100113.03;;;15.84;100.00
4858;BME280;58975;51.978;8.472;2022-10-22T11:26:31;100097.06;;;15.74;100.00
4858;BME280;58975;51.978;8.472;2022-10-22T11:31:30;100101.97;;;15.95;100.00
4858;BME280;58975;51.978;8.472;2022-10-22T11:36:28;100110.38;;;16.08;100.00
4858;BME280;58975;51.978;8.472;2022-10-22T11:41:32;100108.56;;;16.33;100.00
4858;BME280;58975;51.978;8.472;2022-10-22T11:46:52;100109.94;;;16.69;100.00
4858;BME280;58975;51.978;8.472;2022-10-22T11:51:50;100110.28;;;16.58;100.00
4858;BME280;58975;51.978;8.472;2022-10-22T11:56:51;100114.09;;;16.55;100.00
4858;BME280;58975;51.978;8.472;2022-10-22T12:01:54;100102.72;;;16.78;100.00
4858;BME280;58975;51.978;8.472;2022-10-22T12:06:59;100108.91;;;16.30;100.00
4858;BME280;58975;51.978;8.472;2022-10-22T12:12:02;100116.47;;;16.18;100.00
4858;BME280;58975;51.978;8.472;2022-10-22T12:17:11;100115.09;;;16.06;100.00
4858;BME280;58975;51.978;8.472;2022-10-22T12:27:17;100116.38;;;15.78;100.00
4858;BME280;58975;51.978;8.472;2022-10-22T12:32:18;100121.72;;;15.70;100.00
4858;BME280;58975;51.978;8.472;2022-10-22T12:37:15;100119.91;;;15.78;100.00
4858;BME280;58975;51.978;8.472;2022-10-22T12:42:15;100114.56;;;15.94;100.00
4858;BME280;58975;51.978;8.472;2022-10-22T12:47:16;100122.47;;;16.04;100.00
4858;BME280;58975;51.978;8.472;2022-10-22T12:52:20;100129.38;;;16.06;100.00
4858;BME280;58975;51.978;8.472;2022-10-22T12:57:18;100124.84;;;16.15;100.00
4858;BME280;58975;51.978;8.472;2022-10-22T13:02:23;100124.84;;;16.39;100.00
4858;BME280;58975;51.978;8.472;2022-10-22T13:07:20;100125.84;;;16.54;100.00
4858;BME280;58975;51.978;8.472;2022-10-22T13:12:23;100123.00;;;16.48;100.00
4858;BME280;58975;51.978;8.472;2022-10-22T13:17:39;100132.09;;;16.31;100.00
4858;BME280;58975;51.978;8.472;2022-10-22T13:22:39;100132.75;;;16.25;100.00
4858;BME280;58975;51.978;8.472;2022-10-22T13:27:42;100130.03;;;16.17;100.00
4858;BME280;58975;51.978;8.472;2022-10-22T13:32:39;100130.72;;;16.11;100.00
4858;BME280;58975;51.978;8.472;2022-10-22T13:37:36;100128.00;;;16.02;100.00
4858;BME280;58975;51.978;8.472;2022-10-22T13:42:33;100142.06;;;15.88;100.00
4858;BME280;58975;51.978;8.472;2022-10-22T13:47:31;100141.88;;;15.82;100.00
4858;BME280;58975;51.978;8.472;2022-10-22T13:52:34;100136.16;;;15.77;100.00
4858;BME280;58975;51.978;8.472;2022-10-22T13:57:31;100142.00;;;15.72;100.00
4858;BME280;58975;51.978;8.472;2022-10-22T14:02:27;100150.56;;;15.68;100.00
4858;BME280;58975;51.978;8.472;2022-10-22T14:07:24;100153.28;;;15.76;100.00
4858;BME280;58975;51.978;8.472;2022-10-22T14:12:20;100143.91;;;15.80;100.00
4858;BME280;58975;51.978;8.472;2022-10-22T14:17:17;100154.94;;;15.77;100.00
4858;BME280;58975;51.978;8.472;2022-10-22T14:22:18;100163.69;;;15.79;100.00
4858;BME280;58975;51.978;8.472;2022-10-22T14:27:15;100157.25;;;15.64;100.00
4858;BME280;58975;51.978;8.472;2022-10-22T14:32:15;100160.25;;;15.60;100.00
4858;BME280;58975;51.978;8.472;2022-10-22T14:37:17;100172.28;;;15.48;100.00
4858;BME280;58975;51.978;8.472;2022-10-22T14:42:14;100171.72;;;15.45;100.00
4858;BME280;58975;51.978;8.472;2022-10-22T14:47:11;100173.88;;;15.41;100.00
4858;BME280;58975;51.978;8.472;2022-10-22T14:52:08;100177.59;;;15.40;100.00
4858;BME280;58975;51.978;8.472;2022-10-22T14:57:09;100181.88;;;15.33;100.00
4858;BME280;58975;51.978;8.472;2022-10-22T15:02:10;100177.84;;;15.29;100.00
4858;BME280;58975;51.978;8.472;2022-10-22T15:07:07;100191.44;;;15.28;100.00
4858;BME280;58975;51.978;8.472;2022-10-22T15:12:03;100188.22;;;15.24;100.00
4858;BME280;58975;51.978;8.472;2022-10-22T15:17:00;100190.53;;;15.19;100.00
4858;BME280;58975;51.978;8.472;2022-10-22T15:21:56;100201.63;;;15.24;100.00
4858;BME280;58975;51.978;8.472;2022-10-22T15:26:53;100194.97;;;15.28;100.00
4858;BME280;58975;51.978;8.472;2022-10-22T15:31:52;100192.28;;;15.28;100.00
4858;BME280;58975;51.978;8.472;2022-10-22T15:36:50;100199.44;;;15.20;100.00
4858;BME280;58975;51.978;8.472;2022-10-22T15:41:49;100203.94;;;15.19;100.00
4858;BME280;58975;51.978;8.472;2022-10-22T15:46:46;100211.63;;;15.14;100.00
4858;BME280;58975;51.978;8.472;2022-10-22T15:51:43;100210.25;;;15.10;100.00
4858;BME280;58975;51.978;8.472;2022-10-22T15:56:39;100207.09;;;15.14;100.00
4858;BME280;58975;51.978;8.472;2022-10-22T16:01:37;100210.88;;;15.04;100.00
4858;BME280;58975;51.978;8.472;2022-10-22T16:06:50;100212.84;;;15.02;100.00
4858;BME280;58975;51.978;8.472;2022-10-22T16:11:51;100210.81;;;14.96;100.00
4858;BME280;58975;51.978;8.472;2022-10-22T16:16:51;100206.56;;;14.85;100.00
4858;BME280;58975;51.978;8.472;2022-10-22T16:21:49;100212.59;;;14.87;100.00
4858;BME280;58975;51.978;8.472;2022-10-22T16:26:47;100223.47;;;14.68;100.00
4858;BME280;58975;51.978;8.472;2022-10-22T16:31:43;100221.66;;;14.68;100.00
4858;BME280;58975;51.978;8.472;2022-10-22T16:36:40;100227.91;;;14.59;100.00
4858;BME280;58975;51.978;8.472;2022-10-22T16:41:37;100233.13;;;14.43;100.00
4858;BME280;58975;51.978;8.472;2022-10-22T16:46:34;100227.28;;;14.30;100.00
4858;BME280;58975;51.978;8.472;2022-10-22T16:51:34;100235.97;;;14.14;100.00
4858;BME280;58975;51.978;8.472;2022-10-22T16:56:30;100241.69;;;14.02;100.00
4858;BME280;58975;51.978;8.472;2022-10-22T17:01:27;100240.19;;;13.90;100.00
4858;BME280;58975;51.978;8.472;2022-10-22T17:06:26;100242.31;;;13.86;100.00
4858;BME280;58975;51.978;8.472;2022-10-22T17:11:23;100253.53;;;13.62;100.00
4858;BME280;58975;51.978;8.472;2022-10-22T17:16:22;100247.41;;;13.43;100.00
4858;BME280;58975;51.978;8.472;2022-10-22T17:21:20;100259.19;;;13.13;100.00
4858;BME280;58975;51.978;8.472;2022-10-22T17:26:19;100253.94;;;12.82;100.00
4858;BME280;58975;51.978;8.472;2022-10-22T17:31:28;100263.09;;;12.61;100.00
4858;BME280;58975;51.978;8.472;2022-10-22T17:36:26;100263.94;;;12.42;100.00
4858;BME280;58975;51.978;8.472;2022-10-22T17:41:33;100265.44;;;12.25;100.00
4858;BME280;58975;51.978;8.472;2022-10-22T17:46:31;100265.38;;;12.06;100.00
4858;BME280;58975;51.978;8.472;2022-10-22T17:51:28;100273.19;;;11.89;100.00
4858;BME280;58975;51.978;8.472;2022-10-22T17:56:27;100275.09;;;11.77;100.00
4858;BME280;58975;51.978;8.472;2022-10-22T18:01:30;100272.47;;;11.56;100.00
4858;BME280;58975;51.978;8.472;2022-10-22T18:06:27;100277.41;;;11.40;100.00
4858;BME280;58975;51.978;8.472;2022-10-22T18:11:26;100281.72;;;11.31;100.00
4858;BME280;58975;51.978;8.472;2022-10-22T18:16:24;100285.97;;;11.13;100.00
4858;BME280;58975;51.978;8.472;2022-10-22T18:21:23;100286.19;;;10.89;100.00
4858;BME280;58975;51.978;8.472;2022-10-22T18:26:21;100289.88;;;10.77;100.00
4858;BME280;58975;51.978;8.472;2022-10-22T18:31:23;100291.22;;;10.72;100.00
4858;BME280;58975;51.978;8.472;2022-10-22T18:36:23;100290.88;;;10.65;100.00
4858;BME280;58975;51.978;8.472;2022-10-22T18:41:20;100298.66;;;10.57;100.00
4858;BME280;58975;51.978;8.472;2022-10-22T18:46:17;100307.03;;;10.53;100.00
4858;BME280;58975;51.978;8.472;2022-10-22T18:51:14;100298.72;;;10.24;100.00
4858;BME280;58975;51.978;8.472;2022-10-22T18:56:11;100307.06;;;10.19;100.00
4858;BME280;58975;51.978;8.472;2022-10-22T19:01:09;100312.97;;;10.12;100.00
4858;BME280;58975;51.978;8.472;2022-10-22T19:06:05;100307.31;;;10.05;100.00
4858;BME280;58975;51.978;8.472;2022-10-22T19:11:11;100301.66;;;9.98;100.00
4858;BME280;58975;51.978;8.472;2022-10-22T19:16:11;100297.41;;;9.85;100.00
4858;BME280;58975;51.978;8.472;2022-10-22T19:21:10;100304.78;;;9.81;100.00
4858;BME280;58975;51.978;8.472;2022-10-22T19:26:15;100315.91;;;9.86;100.00
4858;BME280;58975;51.978;8.472;2022-10-22T19:31:18;100314.22;;;9.74;100.00
4858;BME280;58975;51.978;8.472;2022-10-22T19:36:16;100322.44;;;9.60;100.00
4858;BME280;58975;51.978;8.472;2022-10-22T19:41:15;100318.06;;;9.48;100.00
4858;BME280;58975;51.978;8.472;2022-10-22T19:46:12;100322.97;;;9.41;100.00
4858;BME280;58975;51.978;8.472;2022-10-22T19:51:15;100325.34;;;9.22;100.00
4858;BME280;58975;51.978;8.472;2022-10-22T19:56:16;100330.56;;;9.24;100.00
4858;BME280;58975;51.978;8.472;2022-10-22T20:01:15;100341.06;;;9.25;100.00
4858;BME280;58975;51.978;8.472;2022-10-22T20:06:14;100334.25;;;9.10;100.00
4858;BME280;58975;51.978;8.472;2022-10-22T20:11:21;100334.75;;;9.15;100.00
4858;BME280;58975;51.978;8.472;2022-10-22T20:16:20;100340.28;;;9.01;100.00
4858;BME280;58975;51.978;8.472;2022-10-22T20:21:19;100345.44;;;9.02;100.00
4858;BME280;58975;51.978;8.472;2022-10-22T20:26:15;100343.94;;;8.87;100.00
4858;BME280;58975;51.978;8.472;2022-10-22T20:31:15;100349.25;;;8.87;100.00
4858;BME280;58975;51.978;8.472;2022-10-22T20:36:15;100347.56;;;8.86;100.00
4858;BME280;58975;51.978;8.472;2022-10-22T20:41:20;100352.38;;;8.81;100.00
4858;BME280;58975;51.978;8.472;2022-10-22T20:46:21;100350.28;;;8.74;100.00
4858;BME280;58975;51.978;8.472;2022-10-22T20:51:18;100359.78;;;8.65;100.00
4858;BME280;58975;51.978;8.472;2022-10-22T20:56:15;100348.47;;;8.74;100.00
4858;BME280;58975;51.978;8.472;2022-10-22T21:01:16;100363.34;;;8.77;100.00
4858;BME280;58975;51.978;8.472;2022-10-22T21:06:18;100358.47;;;8.71;100.00
4858;BME280;58975;51.978;8.472;2022-10-22T21:11:19;100359.16;;;8.62;100.00
4858;BME280;58975;51.978;8.472;2022-10-22T21:16:17;100359.44;;;8.93;100.00
4858;BME280;58975;51.978;8.472;2022-10-22T21:21:14;100366.03;;;8.64;100.00
4858;BME280;58975;51.978;8.472;2022-10-22T21:26:12;100362.53;;;8.64;100.00
4858;BME280;58975;51.978;8.472;2022-10-22T21:31:09;100368.53;;;8.54;100.00
4858;BME280;58975;51.978;8.472;2022-10-22T21:36:06;100370.41;;;8.65;100.00
4858;BME280;58975;51.978;8.472;2022-10-22T21:41:06;100373.91;;;8.89;100.00
4858;BME280;58975;51.978;8.472;2022-10-22T21:46:08;100371.16;;;8.78;100.00
4858;BME280;58975;51.978;8.472;2022-10-22T21:51:07;100380.47;;;8.96;100.00
4858;BME280;58975;51.978;8.472;2022-10-22T21:56:04;100384.44;;;9.02;100.00
4858;BME280;58975;51.978;8.472;2022-10-22T22:01:02;100393.97;;;8.93;100.00
4858;BME280;58975;51.978;8.472;2022-10-22T22:06:00;100392.03;;;8.95;100.00
4858;BME280;58975;51.978;8.472;2022-10-22T22:11:10;100396.44;;;8.84;100.00
4858;BME280;58975;51.978;8.472;2022-10-22T22:16:13;100407.44;;;8.90;100.00
4858;BME280;58975;51.978;8.472;2022-10-22T22:21:13;100401.22;;;9.02;100.00
4858;BME280;58975;51.978;8.472;2022-10-22T22:26:11;100398.91;;;8.98;100.00
4858;BME280;58975;51.978;8.472;2022-10-22T22:31:18;100408.28;;;9.15;100.00
4858;BME280;58975;51.978;8.472;2022-10-22T22:36:16;100401.13;;;9.28;100.00
4858;BME280;58975;51.978;8.472;2022-10-22T22:41:13;100399.59;;;9.36;100.00
4858;BME280;58975;51.978;8.472;2022-10-22T22:46:10;100390.53;;;9.39;100.00
4858;BME280;58975;51.978;8.472;2022-10-22T22:51:08;100395.34;;;9.45;100.00
4858;BME280;58975;51.978;8.472;2022-10-22T22:56:07;100397.78;;;9.37;100.00
4858;BME280;58975;51.978;8.472;2022-10-22T23:06:04;100405.81;;;9.59;100.00
4858;BME280;58975;51.978;8.472;2022-10-22T23:11:03;100396.63;;;9.63;100.00
4858;BME280;58975;51.978;8.472;2022-10-22T23:16:07;100380.44;;;9.66;100.00
4858;BME280;58975;51.978;8.472;2022-10-22T23:21:05;100379.47;;;9.56;100.00
4858;BME280;58975;51.978;8.472;2022-10-22T23:26:02;100380.41;;;9.44;100.00
4858;BME280;58975;51.978;8.472;2022-10-22T23:30:59;100375.47;;;9.62;100.00
4858;BME280;58975;51.978;8.472;2022-10-22T23:35:55;100387.91;;;9.61;100.00
4858;BME280;58975;51.978;8.472;2022-10-22T23:40:55;100379.94;;;9.72;100.00
4858;BME280;58975;51.978;8.472;2022-10-22T23:45:52;100375.88;;;9.79;100.00
4858;BME280;58975;51.978;8.472;2022-10-22T23:50:49;100363.66;;;9.88;100.00
4858;BME280;58975;51.978;8.472;2022-10-22T23:55:45;100353.66;;;9.91;100.00
